Time;durP1;ratioP1;P1;durP2;ratioP2;P2;SDS_P1;SDS_P2;PMS_P1;PMS_P2;Temp;Humidity;BMP_temperature;BMP_pressure;BME280_temperature;BME280_humidity;BME280_pressure;Samples;Min_cycle;Max_cycle;Signal;HPM_P1;HPM_P2
2021/10/27 00:00:29;;;;;;;249.83;233.43;;;12.30;99.90;;;;;;5038332;28;20165;-79
2021/10/27 00:02:55;;;;;;;234.23;218.07;;;12.40;99.90;;;;;;5036942;28;20177;-79
2021/10/27 00:05:21;;;;;;;239.07;222.77;;;12.40;99.90;;;;;;5037839;28;20448;-79
2021/10/27 00:07:47;;;;;;;290.33;272.50;;;12.40;99.90;;;;;;5037739;28;20259;-78
2021/10/27 00:10:13;;;;;;;210.00;195.23;;;12.40;99.90;;;;;;5037958;28;20165;-79
2021/10/27 00:12:39;;;;;;;242.52;226.90;;;12.40;99.90;;;;;;5037940;28;20157;-78
2021/10/27 00:15:10;;;;;;;206.32;191.73;;;12.40;99.90;;;;;;5037570;28;20213;-79
2021/10/27 00:17:36;;;;;;;216.60;201.43;;;12.40;99.90;;;;;;5038247;28;20212;-79
2021/10/27 00:20:05;;;;;;;275.50;257.95;;;12.50;99.90;;;;;;5037393;28;20240;-79
2021/10/27 00:22:31;;;;;;;248.48;232.00;;;12.50;99.90;;;;;;5036120;28;20201;-78
2021/10/27 00:24:56;;;;;;;231.40;215.13;;;12.40;99.90;;;;;;5037349;28;20191;-79
2021/10/27 00:27:25;;;;;;;202.13;187.63;;;12.40;99.90;;;;;;5037196;28;20161;-79
2021/10/27 00:29:51;;;;;;;194.37;179.70;;;12.40;99.90;;;;;;5036078;28;20629;-79
2021/10/27 00:32:17;;;;;;;246.07;229.70;;;12.40;99.90;;;;;;5106736;22;20493;-82
2021/10/27 00:34:43;;;;;;;240.90;224.67;;;12.40;99.90;;;;;;5047860;28;20392;-81
2021/10/27 00:37:09;;;;;;;272.87;255.37;;;12.40;99.90;;;;;;5047996;28;20400;-80
2021/10/27 00:39:36;;;;;;;256.33;240.18;;;12.30;99.90;;;;;;5048669;28;20573;-80
2021/10/27 00:42:03;;;;;;;234.07;218.48;;;12.30;99.90;;;;;;5047816;28;20161;-80
2021/10/27 00:44:30;;;;;;;267.53;250.33;;;12.30;99.90;;;;;;5047859;28;20193;-80
2021/10/27 00:47:04;;;;;;;246.87;230.43;;;12.30;99.90;;;;;;5048740;28;20419;-81
2021/10/27 00:49:31;;;;;;;239.20;223.23;;;12.30;99.90;;;;;;5047262;28;20435;-81
2021/10/27 00:51:58;;;;;;;249.73;233.32;;;12.30;99.90;;;;;;5047418;28;20808;-80
2021/10/27 00:54:25;;;;;;;235.18;219.25;;;12.30;99.90;;;;;;5046502;28;20237;-81
2021/10/27 00:56:55;;;;;;;229.45;213.70;;;12.30;99.90;;;;;;5047127;28;20161;-80
2021/10/27 00:59:25;;;;;;;253.90;237.77;;;12.30;99.90;;;;;;5044584;28;20280;-80
2021/10/27 01:01:52;;;;;;;228.27;212.88;;;12.30;99.90;;;;;;5047705;28;20161;-80
2021/10/27 01:04:18;;;;;;;239.10;223.50;;;12.30;99.90;;;;;;5046730;28;20683;-80
2021/10/27 01:06:45;;;;;;;236.77;221.55;;;12.30;99.90;;;;;;5047306;28;20396;-80
2021/10/27 01:09:14;;;;;;;210.48;195.55;;;12.30;99.90;;;;;;5046360;28;20185;-80
2021/10/27 01:11:41;;;;;;;251.48;235.05;;;12.40;99.90;;;;;;5047069;28;20173;-80
2021/10/27 01:14:09;;;;;;;219.55;204.60;;;12.30;99.90;;;;;;5047720;28;20161;-81
2021/10/27 01:16:35;;;;;;;232.50;216.63;;;12.30;99.90;;;;;;5047487;28;20169;-80
2021/10/27 01:19:01;;;;;;;220.93;205.85;;;12.30;99.90;;;;;;5044436;28;20435;-80
2021/10/27 01:21:31;;;;;;;205.45;190.80;;;12.40;99.90;;;;;;5045450;28;20211;-80
2021/10/27 01:23:58;;;;;;;237.13;221.03;;;12.40;99.90;;;;;;5046495;28;20661;-80
2021/10/27 01:26:25;;;;;;;196.50;182.20;;;12.40;99.90;;;;;;5047888;28;20428;-80
2021/10/27 01:28:50;;;;;;;247.40;230.98;;;12.30;99.90;;;;;;5047324;28;20431;-80
2021/10/27 01:31:16;;;;;;;242.23;226.13;;;12.30;99.90;;;;;;5045007;28;20157;-81
2021/10/27 01:33:43;;;;;;;225.57;210.07;;;12.30;99.90;;;;;;5045476;28;20228;-80
2021/10/27 01:36:10;;;;;;;220.85;205.85;;;12.40;99.90;;;;;;5044937;28;20423;-80
2021/10/27 01:38:36;;;;;;;228.52;213.35;;;12.40;99.90;;;;;;5047090;28;20207;-81
2021/10/27 01:41:03;;;;;;;185.73;171.95;;;12.30;99.90;;;;;;5046617;28;20165;-81
2021/10/27 01:43:29;;;;;;;221.10;205.73;;;12.30;99.90;;;;;;5047316;28;20213;-81
2021/10/27 01:45:55;;;;;;;203.27;188.88;;;12.30;99.90;;;;;;5046464;28;20237;-81
2021/10/27 01:48:21;;;;;;;225.20;209.73;;;12.30;99.90;;;;;;5044181;28;20185;-80
2021/10/27 01:50:47;;;;;;;244.83;229.13;;;12.30;99.90;;;;;;5046157;28;20408;-81
2021/10/27 01:53:13;;;;;;;219.13;204.23;;;12.30;99.90;;;;;;5045578;28;20184;-81
2021/10/27 01:55:41;;;;;;;247.38;231.05;;;12.30;99.90;;;;;;5047897;28;20401;-80
2021/10/27 01:58:06;;;;;;;289.10;271.30;;;12.30;99.90;;;;;;5047852;28;20196;-80
2021/10/27 02:00:32;;;;;;;266.60;250.10;;;12.20;99.90;;;;;;5047600;28;20169;-80
2021/10/27 02:02:58;;;;;;;266.37;249.77;;;12.20;99.90;;;;;;5046405;28;20184;-80
2021/10/27 02:05:24;;;;;;;252.07;235.77;;;12.20;99.90;;;;;;5047986;28;20197;-81
2021/10/27 02:07:49;;;;;;;265.67;249.03;;;12.20;99.90;;;;;;5046312;28;20203;-80
2021/10/27 02:10:15;;;;;;;305.53;287.50;;;12.20;99.90;;;;;;5048711;28;20176;-80
2021/10/27 02:12:42;;;;;;;246.00;230.13;;;12.20;99.90;;;;;;5048039;28;20196;-80
2021/10/27 02:15:10;;;;;;;276.58;259.90;;;12.20;99.90;;;;;;5046651;28;20169;-80
2021/10/27 02:17:36;;;;;;;252.85;236.02;;;12.20;99.90;;;;;;5046150;28;20169;-80
2021/10/27 02:20:03;;;;;;;287.63;270.48;;;12.20;99.90;;;;;;5047901;28;20169;-81
2021/10/27 02:22:28;;;;;;;283.85;267.02;;;12.20;99.90;;;;;;5047758;28;20173;-81
2021/10/27 02:24:54;;;;;;;268.17;251.27;;;12.20;99.90;;;;;;5047955;28;20244;-80
2021/10/27 02:27:20;;;;;;;271.33;254.83;;;12.20;99.90;;;;;;5047962;28;20191;-80
2021/10/27 02:29:45;;;;;;;260.47;244.43;;;12.20;99.90;;;;;;5045681;28;20268;-81
2021/10/27 02:32:11;;;;;;;241.33;225.77;;;12.20;99.90;;;;;;5044840;28;20162;-80
2021/10/27 02:34:36;;;;;;;253.30;237.37;;;12.20;99.90;;;;;;5045446;28;20157;-81
2021/10/27 02:37:03;;;;;;;233.90;218.57;;;12.30;99.90;;;;;;5045019;28;20173;-81
2021/10/27 02:39:29;;;;;;;239.70;224.10;;;12.30;99.90;;;;;;5046779;28;20565;-80
2021/10/27 02:41:55;;;;;;;265.90;249.37;;;12.30;99.90;;;;;;5046735;28;20430;-81
2021/10/27 02:44:21;;;;;;;231.67;216.50;;;12.30;99.90;;;;;;5045279;28;20954;-81
2021/10/27 02:46:48;;;;;;;245.60;229.87;;;12.30;99.90;;;;;;5045984;28;20428;-81
2021/10/27 02:49:15;;;;;;;239.40;223.80;;;12.30;99.90;;;;;;5046666;28;20493;-81
2021/10/27 02:51:41;;;;;;;223.02;208.07;;;12.30;99.90;;;;;;5047326;28;20165;-80
2021/10/27 02:54:07;;;;;;;236.97;221.53;;;12.30;99.90;;;;;;5050153;28;20165;-80
2021/10/27 02:56:33;;;;;;;217.18;202.18;;;12.30;99.90;;;;;;5050481;28;20938;-80
2021/10/27 02:58:58;;;;;;;218.07;203.37;;;12.30;99.90;;;;;;5049803;28;20189;-80
2021/10/27 03:01:24;;;;;;;243.97;227.97;;;12.30;99.90;;;;;;5050258;28;20176;-80
2021/10/27 03:03:51;;;;;;;246.93;230.70;;;12.30;99.90;;;;;;5049992;28;20196;-81
2021/10/27 03:06:17;;;;;;;232.57;217.25;;;12.30;99.90;;;;;;5049049;28;20161;-80
2021/10/27 03:08:45;;;;;;;237.47;222.10;;;12.30;99.90;;;;;;5049975;28;20657;-80
2021/10/27 03:11:11;;;;;;;224.93;209.93;;;12.20;99.90;;;;;;5049814;28;20404;-80
2021/10/27 03:13:37;;;;;;;219.97;205.20;;;12.20;99.90;;;;;;5049954;28;20404;-80
2021/10/27 03:16:02;;;;;;;233.60;218.37;;;12.20;99.90;;;;;;5049716;28;20403;-80
2021/10/27 03:18:28;;;;;;;237.23;221.50;;;12.20;99.90;;;;;;5047426;28;20188;-80
2021/10/27 03:20:54;;;;;;;210.90;195.83;;;12.10;99.90;;;;;;5046985;28;20172;-81
2021/10/27 03:23:19;;;;;;;181.50;168.07;;;12.10;99.90;;;;;;5047024;28;20175;-80
2021/10/27 03:25:45;;;;;;;167.40;154.33;;;12.10;99.90;;;;;;5049016;28;20185;-80
2021/10/27 03:28:11;;;;;;;180.63;166.53;;;12.10;99.90;;;;;;5048304;28;20189;-80
2021/10/27 03:30:37;;;;;;;178.83;164.90;;;12.00;99.90;;;;;;5047564;28;20425;-80
2021/10/27 03:33:03;;;;;;;167.88;154.23;;;12.00;99.90;;;;;;5049234;28;20189;-80
2021/10/27 03:35:30;;;;;;;143.02;130.80;;;11.90;99.90;;;;;;5047132;28;20193;-80
2021/10/27 03:37:56;;;;;;;186.17;171.97;;;11.90;99.90;;;;;;5047135;28;20194;-80
2021/10/27 03:40:21;;;;;;;149.07;136.63;;;11.80;99.90;;;;;;5048545;28;20233;-80
2021/10/27 03:42:47;;;;;;;140.77;128.57;;;11.80;99.90;;;;;;5049103;28;20176;-80
2021/10/27 03:45:13;;;;;;;169.70;156.10;;;11.70;99.90;;;;;;5047876;28;20577;-80
2021/10/27 03:47:39;;;;;;;158.77;145.53;;;11.70;99.90;;;;;;5048267;28;20419;-80
2021/10/27 03:50:08;;;;;;;137.75;125.63;;;11.60;99.90;;;;;;5048613;28;20158;-80
2021/10/27 03:52:34;;;;;;;161.02;148.10;;;11.60;99.90;;;;;;5048286;28;20219;-80
2021/10/27 03:55:00;;;;;;;159.47;146.60;;;11.60;99.90;;;;;;5049609;28;20236;-80
2021/10/27 03:57:25;;;;;;;195.27;180.85;;;11.60;99.90;;;;;;5046900;28;20495;-80
2021/10/27 03:59:51;;;;;;;197.43;183.33;;;11.50;99.90;;;;;;5047004;28;20169;-80
2021/10/27 04:02:17;;;;;;;200.97;186.63;;;11.50;99.90;;;;;;5046198;28;20169;-80
2021/10/27 04:04:43;;;;;;;199.20;184.93;;;11.40;99.90;;;;;;5048271;28;20193;-80
2021/10/27 04:07:08;;;;;;;234.80;219.03;;;11.40;99.90;;;;;;5048579;28;20165;-80
2021/10/27 04:09:34;;;;;;;238.80;222.63;;;11.40;99.90;;;;;;5047962;28;20181;-80
2021/10/27 04:11:59;;;;;;;259.67;242.93;;;11.40;99.90;;;;;;5045117;28;20180;-80
2021/10/27 04:14:26;;;;;;;249.40;233.57;;;11.30;99.90;;;;;;5045080;28;20221;-80
2021/10/27 04:16:51;;;;;;;265.30;248.80;;;11.30;99.90;;;;;;5047485;28;20195;-80
2021/10/27 04:19:17;;;;;;;271.57;254.27;;;11.30;99.90;;;;;;5048017;28;20181;-82
2021/10/27 04:21:43;;;;;;;280.40;263.87;;;11.20;99.90;;;;;;5046792;28;20165;-81
2021/10/27 04:24:08;;;;;;;284.53;267.67;;;11.20;99.90;;;;;;5047853;28;20220;-80
2021/10/27 04:26:34;;;;;;;252.20;236.33;;;11.20;99.90;;;;;;5046806;28;20180;-80
2021/10/27 04:29:03;;;;;;;277.63;260.52;;;11.10;99.90;;;;;;5045777;28;20183;-80
2021/10/27 04:31:30;;;;;;;287.77;270.13;;;11.10;99.90;;;;;;5046227;28;20627;-80
2021/10/27 04:33:56;;;;;;;253.18;237.07;;;11.10;99.90;;;;;;5047599;28;20177;-80
2021/10/27 04:36:21;;;;;;;277.97;261.33;;;11.10;99.90;;;;;;5047817;28;20193;-80
2021/10/27 04:38:47;;;;;;;242.80;227.00;;;11.10;99.90;;;;;;5047860;28;20420;-82
2021/10/27 04:41:13;;;;;;;287.67;270.83;;;11.10;99.90;;;;;;5047752;28;20168;-82
2021/10/27 04:43:38;;;;;;;271.53;255.20;;;11.00;99.90;;;;;;5047572;28;20196;-82
2021/10/27 04:46:05;;;;;;;281.70;264.43;;;11.00;99.90;;;;;;5047472;28;20157;-82
2021/10/27 04:48:30;;;;;;;235.73;219.93;;;11.00;99.90;;;;;;5046337;28;20248;-82
2021/10/27 04:50:56;;;;;;;272.80;256.23;;;11.10;99.90;;;;;;5046858;28;20165;-82
2021/10/27 04:53:24;;;;;;;242.60;226.30;;;11.10;99.90;;;;;;5045439;28;20172;-82
2021/10/27 04:55:52;;;;;;;240.90;225.48;;;11.10;99.90;;;;;;5047055;28;20168;-82
2021/10/27 04:58:18;;;;;;;266.73;250.38;;;11.10;99.90;;;;;;5047150;28;20185;-82
2021/10/27 05:00:44;;;;;;;282.80;266.15;;;11.10;99.90;;;;;;5046820;28;20161;-82
2021/10/27 05:03:10;;;;;;;247.17;231.47;;;11.10;99.90;;;;;;5045710;28;20208;-82
2021/10/27 05:05:42;;;;;;;288.27;271.10;;;11.00;99.90;;;;;;5047866;28;20572;-82
2021/10/27 05:08:08;;;;;;;256.27;240.45;;;11.10;99.90;;;;;;5045597;28;20184;-82
2021/10/27 05:10:33;;;;;;;259.40;243.40;;;11.00;99.90;;;;;;5047183;28;20173;-82
2021/10/27 05:12:59;;;;;;;254.23;238.23;;;11.00;99.90;;;;;;5046937;28;20172;-82
2021/10/27 05:15:25;;;;;;;261.95;245.88;;;11.00;99.90;;;;;;5046167;28;20172;-82
2021/10/27 05:17:51;;;;;;;250.63;234.30;;;10.90;99.90;;;;;;5046411;28;20185;-82
2021/10/27 05:20:16;;;;;;;261.57;245.50;;;10.90;99.90;;;;;;5045422;28;20253;-82
2021/10/27 05:22:42;;;;;;;289.23;270.97;;;10.80;99.90;;;;;;5043842;28;20165;-82
2021/10/27 05:25:08;;;;;;;287.30;269.93;;;10.80;99.90;;;;;;5046010;28;20185;-82
2021/10/27 05:27:35;;;;;;;278.38;261.70;;;10.80;99.90;;;;;;5045988;28;20161;-83
2021/10/27 05:30:02;;;;;;;292.50;275.33;;;10.80;99.90;;;;;;5047017;28;20154;-82
2021/10/27 05:32:27;;;;;;;280.38;263.35;;;10.70;99.90;;;;;;5045372;28;20179;-82
2021/10/27 05:34:53;;;;;;;255.30;238.87;;;10.70;99.90;;;;;;5044867;28;20240;-82
2021/10/27 05:37:19;;;;;;;276.40;259.70;;;10.70;99.90;;;;;;5045710;28;20166;-82
2021/10/27 05:39:44;;;;;;;250.93;234.63;;;10.70;99.90;;;;;;5044493;28;20173;-83
2021/10/27 05:42:16;;;;;;;287.30;269.87;;;10.70;99.90;;;;;;5045992;28;20219;-83
2021/10/27 05:44:42;;;;;;;246.60;230.38;;;10.60;99.90;;;;;;5046410;28;20182;-83
2021/10/27 05:47:10;;;;;;;239.30;223.77;;;10.60;99.90;;;;;;5046646;28;20161;-82
2021/10/27 05:49:39;;;;;;;252.90;236.30;;;10.60;99.90;;;;;;5047077;28;20208;-82
2021/10/27 05:57:22;;;;;;;230.77;214.82;;;10.70;99.90;;;;;;5046434;28;20157;-83
2021/10/27 05:59:51;;;;;;;256.20;239.40;;;10.70;99.90;;;;;;5041917;28;20173;-82
2021/10/27 06:02:17;;;;;;;268.52;251.77;;;10.70;99.90;;;;;;5044516;28;20165;-82
2021/10/27 06:04:43;;;;;;;229.70;214.37;;;10.70;99.90;;;;;;5046216;28;20224;-82
2021/10/27 06:07:09;;;;;;;270.57;253.87;;;10.70;99.90;;;;;;5045040;28;20400;-82
2021/10/27 06:09:34;;;;;;;226.97;211.80;;;10.70;99.90;;;;;;5044872;28;20945;-83
2021/10/27 06:12:04;;;;;;;223.13;208.13;;;10.70;99.90;;;;;;5046252;28;20426;-83
2021/10/27 06:14:31;;;;;;;253.32;237.15;;;10.70;99.90;;;;;;5043822;28;20408;-82
2021/10/27 06:16:57;;;;;;;242.48;226.68;;;10.70;99.90;;;;;;5040644;28;20201;-82
2021/10/27 06:19:23;;;;;;;255.40;238.73;;;10.70;99.90;;;;;;5045536;28;20599;-83
2021/10/27 06:21:49;;;;;;;239.67;224.03;;;10.70;99.90;;;;;;5044291;28;20173;-83
2021/10/27 06:24:15;;;;;;;244.35;227.93;;;10.70;99.90;;;;;;5043462;28;20188;-82
2021/10/27 06:26:41;;;;;;;224.53;209.20;;;10.70;99.90;;;;;;5043514;28;20214;-82
2021/10/27 06:29:10;;;;;;;252.63;236.83;;;10.70;99.90;;;;;;5042455;28;20265;-82
2021/10/27 06:31:39;;;;;;;230.07;214.43;;;10.70;99.90;;;;;;5041731;28;20403;-82
2021/10/27 06:48:04;;;;;;;245.52;228.93;;;10.90;99.90;;;;;;5018324;28;20194;-84
2021/10/27 06:50:30;;;;;;;251.82;235.63;;;10.90;99.90;;;;;;5017494;28;20220;-84
2021/10/27 06:52:55;;;;;;;279.37;262.03;;;11.00;99.90;;;;;;5018087;28;20170;-83
2021/10/27 06:55:21;;;;;;;265.23;247.97;;;11.00;99.90;;;;;;5016486;28;20170;-83
2021/10/27 06:57:47;;;;;;;235.27;219.43;;;11.00;99.90;;;;;;5017472;28;20193;-83
2021/10/27 07:00:18;;;;;;;266.40;250.03;;;11.10;99.90;;;;;;5016975;28;20630;-83
2021/10/27 07:03:04;;;;;;;342.70;323.48;;;11.10;99.90;;;;;;5017568;28;20413;-83
2021/10/27 07:16:27;;;;;;;367.20;346.83;;;11.60;99.90;;;;;;5015919;28;20557;-83
2021/10/27 07:18:53;;;;;;;355.77;336.33;;;11.70;99.90;;;;;;5016372;28;20190;-83
2021/10/27 07:21:20;;;;;;;336.53;317.53;;;11.70;99.90;;;;;;5015583;28;20170;-83
2021/10/27 07:23:46;;;;;;;336.73;318.08;;;11.80;99.90;;;;;;5016100;28;20280;-83
2021/10/27 07:26:14;;;;;;;333.37;314.60;;;11.80;99.90;;;;;;5016136;28;20197;-83
2021/10/27 07:28:41;;;;;;;305.10;286.92;;;11.90;99.90;;;;;;5015631;28;20423;-83
2021/10/27 07:31:13;;;;;;;252.82;236.75;;;12.00;99.90;;;;;;5016724;28;20656;-83
2021/10/27 07:33:39;;;;;;;283.75;266.70;;;12.10;99.90;;;;;;5017052;28;20579;-83
2021/10/27 07:41:27;;;;;;;206.32;191.95;;;12.40;99.90;;;;;;5021443;28;20165;-84
2021/10/27 07:43:55;;;;;;;197.68;182.98;;;12.40;99.90;;;;;;5020520;28;20276;-84
2021/10/27 07:46:20;;;;;;;231.70;216.65;;;12.50;99.90;;;;;;5019976;28;20165;-84
2021/10/27 07:48:46;;;;;;;246.43;230.37;;;12.50;99.90;;;;;;5021900;28;20692;-84
2021/10/27 07:51:12;;;;;;;235.17;219.77;;;12.60;99.90;;;;;;5021461;28;20413;-83
2021/10/27 07:53:38;;;;;;;224.35;209.00;;;12.60;99.90;;;;;;5021667;28;20173;-84
2021/10/27 07:56:04;;;;;;;239.03;222.83;;;12.60;99.90;;;;;;5021920;28;20197;-83
2021/10/27 07:58:34;;;;;;;224.73;209.53;;;12.70;99.90;;;;;;5019713;28;20432;-83
2021/10/27 08:01:00;;;;;;;247.02;230.45;;;12.70;99.90;;;;;;5020934;28;20415;-83
2021/10/27 08:03:28;;;;;;;224.57;209.23;;;12.70;99.90;;;;;;5021892;28;20218;-84
2021/10/27 08:05:56;;;;;;;196.98;182.00;;;12.80;99.90;;;;;;5021015;28;20416;-83
2021/10/27 08:08:23;;;;;;;174.32;161.00;;;13.00;99.90;;;;;;5021235;28;20174;-83
2021/10/27 08:10:50;;;;;;;131.00;119.27;;;13.10;99.90;;;;;;5021820;28;20177;-84
2021/10/27 08:13:15;;;;;;;118.13;106.40;;;13.20;99.90;;;;;;5019870;28;20435;-83
2021/10/27 08:15:42;;;;;;;173.13;159.77;;;13.30;99.90;;;;;;5019950;28;20417;-84
2021/10/27 08:18:14;;;;;;;137.10;124.78;;;13.20;99.90;;;;;;5019358;28;20189;-83
2021/10/27 08:20:40;;;;;;;109.83;98.57;;;13.20;99.90;;;;;;5020699;28;20166;-83
2021/10/27 08:23:09;;;;;;;144.38;131.15;;;13.30;99.90;;;;;;5019196;28;20938;-83
2021/10/27 08:25:39;;;;;;;130.38;118.20;;;13.30;99.90;;;;;;5020328;28;20185;-83
2021/10/27 08:28:08;;;;;;;133.10;120.97;;;13.30;99.90;;;;;;5018472;28;20604;-83
2021/10/27 08:31:02;;;;;;;113.20;101.60;;;13.40;99.90;;;;;;5020634;28;20170;-83
2021/10/27 08:33:43;;;;;;;93.30;79.60;;;13.40;99.90;;;;;;5019904;28;20564;-83
2021/10/27 08:36:09;;;;;;;93.17;78.47;;;13.40;99.90;;;;;;5019054;28;20409;-83
2021/10/27 08:38:35;;;;;;;90.50;70.60;;;13.50;99.90;;;;;;5018545;28;20447;-82
2021/10/27 08:41:02;;;;;;;104.23;88.03;;;13.50;99.90;;;;;;5020367;28;20411;-83
2021/10/27 08:43:28;;;;;;;95.05;81.30;;;13.60;99.90;;;;;;5019952;28;20474;-83
2021/10/27 08:45:55;;;;;;;95.43;84.87;;;13.60;99.90;;;;;;5020271;28;20166;-83
2021/10/27 08:48:21;;;;;;;90.13;72.43;;;13.60;99.90;;;;;;5020237;28;20940;-84
2021/10/27 08:50:49;;;;;;;99.63;88.57;;;13.60;99.90;;;;;;5018466;28;20405;-83
2021/10/27 08:53:15;;;;;;;89.07;65.57;;;13.70;99.90;;;;;;5019561;28;20409;-83
2021/10/27 08:55:47;;;;;;;108.97;97.87;;;13.70;99.90;;;;;;5018042;28;20437;-84
2021/10/27 08:58:17;;;;;;;105.80;94.97;;;13.90;99.90;;;;;;5018177;28;20435;-84
2021/10/27 09:01:08;;;;;;;119.40;108.13;;;13.90;99.90;;;;;;5018790;28;20382;-83
2021/10/27 09:34:09;;;;;;;76.10;29.13;;;14.30;99.90;;;;;;5018324;28;20439;-84
2021/10/27 09:37:22;;;;;;;73.67;25.77;;;14.40;99.90;;;;;;5015341;28;20428;-84
2021/10/27 09:40:15;;;;;;;74.43;26.67;;;14.40;99.90;;;;;;5018135;28;20405;-84
2021/10/27 10:05:24;;;;;;;77.90;28.40;;;14.60;99.90;;;;;;5018798;28;21018;-83
2021/10/27 10:07:51;;;;;;;75.10;29.67;;;14.60;99.90;;;;;;5018558;28;20421;-84
2021/10/27 10:10:17;;;;;;;75.47;32.07;;;14.60;99.90;;;;;;5018633;28;20411;-84
2021/10/27 10:12:48;;;;;;;74.70;30.07;;;14.70;99.90;;;;;;5016899;28;20401;-84
2021/10/27 10:15:14;;;;;;;75.50;31.20;;;14.70;99.90;;;;;;5017494;28;20395;-83
2021/10/27 10:17:43;;;;;;;73.00;24.63;;;14.70;99.90;;;;;;5016090;28;20510;-83
2021/10/27 10:20:11;;;;;;;73.90;27.57;;;14.80;99.90;;;;;;5018160;28;20405;-83
2021/10/27 10:22:38;;;;;;;75.47;28.00;;;14.70;99.90;;;;;;5017296;28;20412;-84
2021/10/27 10:25:20;;;;;;;74.30;21.63;;;14.80;99.90;;;;;;5015466;28;20445;-83
2021/10/27 10:27:54;;;;;;;75.60;28.73;;;14.80;99.90;;;;;;5016487;28;20429;-83
2021/10/27 10:30:49;;;;;;;76.30;31.97;;;14.90;99.90;;;;;;5017061;28;20397;-82
2021/10/27 10:33:16;;;;;;;74.57;28.47;;;14.90;99.90;;;;;;5009702;28;20421;-80
2021/10/27 10:35:58;;;;;;;72.47;26.57;;;15.00;99.90;;;;;;5015431;28;20405;-82
2021/10/27 11:39:53;;;;;;;68.63;10.47;;;16.60;99.90;;;;;;5047989;23;20480;-84
2021/10/27 11:51:17;;;;;;;67.47;10.53;;;16.90;99.90;;;;;;5040039;28;20716;-84
2021/10/27 11:53:55;;;;;;;68.20;12.63;;;17.10;99.90;;;;;;5039789;28;20884;-84
2021/10/27 11:56:32;;;;;;;72.33;10.20;;;17.00;99.90;;;;;;5039800;28;20422;-84
2021/10/27 11:59:06;;;;;;;68.80;14.10;;;17.00;99.90;;;;;;5039116;28;20442;-84
2021/10/27 12:01:46;;;;;;;70.57;18.60;;;17.10;99.90;;;;;;5039481;28;20385;-84
2021/10/27 12:04:14;;;;;;;77.87;32.47;;;17.40;99.90;;;;;;5032325;28;20581;-84
2021/10/27 12:07:11;;;;;;;79.77;42.10;;;17.50;99.80;;;;;;5037784;28;20427;-84
2021/10/27 12:12:46;;;;;;;75.20;31.23;;;17.30;99.60;;;;;;5038707;28;20736;-84
2021/10/27 12:18:31;;;;;;;78.77;42.93;;;17.30;99.90;;;;;;5039493;28;20427;-85
2021/10/27 12:21:10;;;;;;;;;;;;;;;;;;;;;
2021/10/27 12:23:36;;;;;;;75.37;32.87;;;17.40;97.90;;;;;;5038818;28;20486;-84
2021/10/27 12:26:26;;;;;;;78.27;36.23;;;17.10;99.90;;;;;;5038617;28;20961;-84
2021/10/27 12:29:13;;;;;;;76.40;33.03;;;17.20;99.90;;;;;;5037886;28;20247;-84
2021/10/27 12:31:39;;;;;;;76.60;36.57;;;17.10;99.90;;;;;;5038884;28;20387;-85
2021/10/27 12:34:27;;;;;;;75.63;36.20;;;17.00;99.90;;;;;;5113272;22;20530;-79
2021/10/27 12:36:57;;;;;;;77.83;39.50;;;17.20;99.40;;;;;;5038458;28;20385;-79
2021/10/27 12:39:32;;;;;;;71.50;23.53;;;17.00;99.90;;;;;;5037994;28;20478;-79
2021/10/27 12:42:08;;;;;;;74.13;29.93;;;16.90;99.90;;;;;;5038010;28;20697;-79
2021/10/27 12:44:50;;;;;;;77.00;39.70;;;16.90;99.90;;;;;;5036082;28;20446;-79
2021/10/27 12:47:22;;;;;;;75.90;34.77;;;16.90;99.90;;;;;;5036910;28;20399;-79
2021/10/27 12:49:49;;;;;;;76.40;38.07;;;16.90;99.90;;;;;;5037775;28;20388;-79
2021/10/27 12:52:32;;;;;;;79.97;39.77;;;16.90;99.90;;;;;;5038148;28;20733;-79
2021/10/27 12:55:08;;;;;;;83.20;43.00;;;16.90;99.70;;;;;;5038510;28;20404;-79
2021/10/27 12:57:54;;;;;;;71.70;21.70;;;17.00;99.90;;;;;;5038527;28;20446;-78
2021/10/27 13:03:55;;;;;;;81.40;37.17;;;17.20;99.90;;;;;;5015120;28;20971;-79
2021/10/27 13:32:17;;;;;;;77.57;36.97;;;17.20;99.90;;;;;;5037556;28;20483;-79
2021/10/27 13:34:43;;;;;;;69.30;16.70;;;17.00;99.90;;;;;;5036569;28;20430;-78
2021/10/27 13:37:10;;;;;;;71.73;20.97;;;16.90;99.90;;;;;;5036197;28;20442;-79
2021/10/27 13:39:37;;;;;;;79.80;36.40;;;17.00;99.90;;;;;;5036526;28;20421;-78
2021/10/27 13:42:12;;;;;;;73.80;21.10;;;17.10;99.90;;;;;;5036627;28;20413;-78
2021/10/27 13:44:52;;;;;;;73.80;21.60;;;17.20;99.90;;;;;;5037068;28;20448;-78
2021/10/27 13:47:25;;;;;;;79.87;41.37;;;17.10;99.90;;;;;;5036892;28;20391;-78
2021/10/27 14:07:03;;;;;;;76.90;37.13;;;17.10;99.90;;;;;;5037479;28;20376;-79
2021/10/27 14:09:14;;;;;;;77.03;39.27;;;17.10;99.90;;;;;;5033581;28;20435;-79
2021/10/27 14:17:46;;;;;;;80.07;44.10;;;17.20;99.90;;;;;;5035404;28;20377;-79
2021/10/27 14:20:21;;;;;;;81.93;46.17;;;17.20;99.90;;;;;;5034360;28;20409;-78
2021/10/27 14:47:48;;;;;;;72.47;23.00;;;17.00;99.90;;;;;;5036126;28;20384;-79
2021/10/27 15:20:23;;;;;;;79.87;45.60;;;16.80;99.90;;;;;;5040020;28;20457;-79
2021/10/27 15:22:59;;;;;;;73.37;24.53;;;16.80;99.90;;;;;;5040346;28;20412;-79
2021/10/27 15:36:07;;;;;;;70.40;13.43;;;16.60;99.90;;;;;;5039895;28;20404;-79
2021/10/27 15:42:11;;;;;;;66.30;8.03;;;16.40;99.90;;;;;;5040810;28;20390;-79
2021/10/27 15:52:06;;;;;;;68.80;10.73;;;15.80;99.90;;;;;;5040254;28;20384;-79
2021/10/27 15:54:32;;;;;;;68.00;10.03;;;15.80;99.90;;;;;;5039827;28;20915;-79
2021/10/27 15:56:59;;;;;;;69.70;13.23;;;15.80;99.90;;;;;;5039629;28;20464;-79
2021/10/27 15:59:25;;;;;;;74.27;13.77;;;15.70;99.90;;;;;;5037516;28;20194;-80
2021/10/27 16:01:51;;;;;;;72.30;20.03;;;15.60;99.90;;;;;;5039919;28;20411;-79
2021/10/27 16:04:18;;;;;;;70.80;16.37;;;15.50;99.90;;;;;;5039858;28;20468;-80
2021/10/27 16:06:52;;;;;;;74.73;25.70;;;15.50;99.90;;;;;;5038280;28;20762;-79
2021/10/27 16:09:19;;;;;;;71.63;22.07;;;15.40;99.90;;;;;;5038319;28;20834;-80
2021/10/27 16:11:46;;;;;;;76.93;32.80;;;15.30;99.90;;;;;;5039516;28;20405;-80
2021/10/27 16:14:13;;;;;;;77.93;31.67;;;15.30;99.90;;;;;;5039116;28;20410;-79
2021/10/27 16:16:40;;;;;;;84.73;55.40;;;15.20;99.90;;;;;;5038853;28;20440;-79
2021/10/27 16:19:05;;;;;;;90.20;72.23;;;15.10;99.90;;;;;;5038554;28;20932;-79
2021/10/27 16:21:31;;;;;;;97.50;84.20;;;15.00;99.90;;;;;;5038336;28;20459;-79
2021/10/27 16:23:58;;;;;;;147.20;134.40;;;14.90;99.90;;;;;;5038667;28;20243;-79
2021/10/27 16:26:25;;;;;;;133.90;121.90;;;14.80;99.90;;;;;;5039035;28;20165;-79
2021/10/27 16:28:51;;;;;;;130.07;118.10;;;14.70;99.90;;;;;;5038241;28;20444;-79
2021/10/27 16:31:17;;;;;;;125.80;114.00;;;14.80;99.90;;;;;;5037714;28;20411;-79
2021/10/27 16:33:45;;;;;;;136.07;123.43;;;14.80;99.90;;;;;;5039267;28;20420;-79
2021/10/27 16:36:12;;;;;;;126.13;114.53;;;14.70;99.90;;;;;;5037400;28;20238;-79
2021/10/27 16:38:41;;;;;;;131.57;119.70;;;14.70;99.90;;;;;;5038535;28;20473;-79
2021/10/27 16:41:08;;;;;;;124.13;112.23;;;14.60;99.90;;;;;;5036870;28;20479;-79
2021/10/27 16:43:37;;;;;;;126.67;114.90;;;14.70;99.90;;;;;;5036958;28;20412;-79
2021/10/27 16:46:03;;;;;;;130.90;119.03;;;14.50;99.90;;;;;;5038571;28;20453;-79
2021/10/27 16:48:29;;;;;;;128.80;117.07;;;14.50;99.90;;;;;;5038344;28;20448;-80
2021/10/27 16:50:56;;;;;;;135.33;123.40;;;14.40;99.90;;;;;;5038681;28;20212;-79
2021/10/27 16:53:24;;;;;;;112.60;100.60;;;14.30;99.90;;;;;;5036739;28;20172;-79
2021/10/27 16:55:51;;;;;;;99.10;87.67;;;14.10;99.90;;;;;;5038512;28;20487;-79
2021/10/27 16:58:16;;;;;;;96.00;81.07;;;14.10;99.90;;;;;;5038079;28;20424;-79
2021/10/27 17:00:43;;;;;;;92.67;72.83;;;14.10;99.90;;;;;;5038718;28;20411;-79
2021/10/27 17:03:09;;;;;;;87.50;64.50;;;14.10;99.90;;;;;;5038553;28;20165;-80
2021/10/27 17:05:35;;;;;;;92.63;71.33;;;14.00;99.90;;;;;;5036976;28;20471;-79
2021/10/27 17:08:01;;;;;;;89.97;58.37;;;13.90;99.90;;;;;;5038537;28;20935;-79
2021/10/27 17:10:27;;;;;;;79.07;40.27;;;13.90;99.90;;;;;;5038129;28;20411;-79
2021/10/27 17:12:53;;;;;;;77.00;32.27;;;13.90;99.90;;;;;;5038382;28;20518;-79
2021/10/27 17:15:19;;;;;;;83.50;37.60;;;13.80;99.90;;;;;;5036836;28;20205;-79